KYKN/YKN METAR and TAF weather

Enter ICAO airport designator
Station Type Date Time Source
KYKN METAR 2023/02/04 01:56 UTC NOAA

KYKN 040156Z AUTO 10007KT 10SM CLR M11/M15 A3013 RMK AO2 SLP246 T11111150 FZRANO


Station Type Date Time Source
KYKN Decoded METAR 2023/02/04 01:56 UTC NOAA

Yankton, Chan Gurney Municipal Airport, SD, United States (KYKN) 42-55N 097-23W
Feb 03, 2023 - 08:56 PM EST / 2023.02.04 0156 UTC
Wind: from the E (100 degrees) at 8 MPH (7 KT):0
Visibility: 10 mile(s):0
Sky conditions: clear
Temperature: 12.0 F (-11.1 C)
Windchill: 0 F (-18 C):1
Dew Point: 5.0 F (-15.0 C)
Relative Humidity: 72%
Pressure (altimeter): 30.13 in. Hg (1020 hPa)
ob: KYKN 040156Z AUTO 10007KT 10SM CLR M11/M15 A3013 RMK AO2 SLP246 T11111150 FZRANO
cycle: 2

Station Type Date Time Source
KYKN TAF UTC NOAA

Error!

Example: see airport list